Alps Wideshine — 9HA2472 — position and weather

sailwx.info

Track history (hours):
 
Tides and Currents Weather Stations Pressure Air Temp Water Temp Dewpoint Dewpoint Depression Visibility Wind Speed Wind Dir Waves Ship Positions

Alps Wideshine

Last reported at 2017-Feb-17 11:20 UTC. Time now 2017-Mar-23 06:21 UTC.
Position N 38°50' W 075°05'.
Warning: this ship's position is 33 days out of date.

Length 107 m; draft 6.6 m.

Type: Tanker. MMSI: 248694000.

Date/timePositionNaut miles runAvg speedWind from/ knotsBaromVisibWave heightAir tempDewpointWater temp
2017-Feb-17 11:20N 38°50' W 075°05'911.9
2017-Feb-17 10:33N 38°59' W 075°08'1212.0
2017-Feb-17 09:33N 39°10' W 075°15'1110.9
2017-Feb-17 08:33N 39°19' W 075°24'9 9.3
2017-Feb-17 07:33N 39°26' W 075°32'8 8.1
2017-Feb-17 06:33N 39°34' W 075°33'8 8.2
2017-Feb-17 05:33N 39°42' W 075°31'10 9.9
2017-Feb-17 04:33N 39°49' W 075°23'5 5.4
2017-Feb-17 03:33N 39°51' W 075°16'0 0.0
2017-Feb-17 02:33N 39°51' W 075°16'0 0.0
2017-Feb-17 01:33N 39°51' W 075°16'0 0.0
2017-Feb-17 00:33N 39°51' W 075°16'0 0.0
2017-Feb-16 23:33N 39°51' W 075°16'0 0.0
2017-Feb-16 22:33N 39°51' W 075°16'0 0.0
2017-Feb-16 21:33N 39°51' W 075°16'0 0.0
2017-Feb-16 20:33N 39°51' W 075°16'0 0.0
2017-Feb-16 19:33N 39°51' W 075°16'0 0.0
2017-Feb-16 18:33N 39°51' W 075°16'0 0.0
2017-Feb-16 17:33N 39°51' W 075°16'0 0.0
2017-Feb-16 16:33N 39°51' W 075°16'0 0.0
2017-Feb-16 15:33N 39°51' W 075°16'0 0.0
2017-Feb-16 14:33N 39°51' W 075°16'0 0.0
2017-Feb-16 13:33N 39°51' W 075°16'0 0.0
2017-Feb-16 12:33N 39°51' W 075°16'0 0.0
2017-Feb-16 11:33N 39°51' W 075°16'0 0.0
2017-Feb-16 10:33N 39°51' W 075°16'0 0.0
2017-Feb-16 09:30N 39°51' W 075°16'0 0.0
2017-Feb-16 08:30N 39°51' W 075°16'0 0.0
2017-Feb-16 07:30N 39°51' W 075°16'0 0.5
2017-Feb-16 06:33N 39°51' W 075°16'1010.0
2017-Feb-16 05:33N 39°46' W 075°28'1111.1
2017-Feb-16 04:33N 39°37' W 075°34'1010.1
2017-Feb-16 03:33N 39°27' W 075°33'1010.0
2017-Feb-16 02:33N 39°19' W 075°24'9 9.2
2017-Feb-16 01:33N 39°12' W 075°17'10 9.6
2017-Feb-16 00:33N 39°03' W 075°10'  
2017-Feb-12 04:21N 26°15' W 079°29'  
Track history (hours):
 
Tides and Currents Weather Stations Pressure Air Temp Water Temp Dewpoint Dewpoint Depression Visibility Wind Speed Wind Dir Waves Ship Positions

Alps Wideshine

Last reported at 2017-Feb-17 11:20 UTC. Time now 2017-Mar-23 06:21 UTC.
Position N 38°50' W 075°05'.
Warning: this ship's position is 33 days out of date.

Length 107 m; draft 6.6 m.

Type: Tanker. MMSI: 248694000.

Date/timePositionNaut miles runAvg speedWind from/ knotsBaromVisibWave heightAir tempDewpointWater temp
2017-Feb-17 11:20N 38°50' W 075°05'911.9
2017-Feb-17 10:33N 38°59' W 075°08'1212.0
2017-Feb-17 09:33N 39°10' W 075°15'1110.9
2017-Feb-17 08:33N 39°19' W 075°24'9 9.3
2017-Feb-17 07:33N 39°26' W 075°32'8 8.1
2017-Feb-17 06:33N 39°34' W 075°33'8 8.2
2017-Feb-17 05:33N 39°42' W 075°31'10 9.9
2017-Feb-17 04:33N 39°49' W 075°23'5 5.4
2017-Feb-17 03:33N 39°51' W 075°16'0 0.0
2017-Feb-17 02:33N 39°51' W 075°16'0 0.0
2017-Feb-17 01:33N 39°51' W 075°16'0 0.0
2017-Feb-17 00:33N 39°51' W 075°16'0 0.0
2017-Feb-16 23:33N 39°51' W 075°16'0 0.0
2017-Feb-16 22:33N 39°51' W 075°16'0 0.0
2017-Feb-16 21:33N 39°51' W 075°16'0 0.0
2017-Feb-16 20:33N 39°51' W 075°16'0 0.0
2017-Feb-16 19:33N 39°51' W 075°16'0 0.0
2017-Feb-16 18:33N 39°51' W 075°16'0 0.0
2017-Feb-16 17:33N 39°51' W 075°16'0 0.0
2017-Feb-16 16:33N 39°51' W 075°16'0 0.0
2017-Feb-16 15:33N 39°51' W 075°16'0 0.0
2017-Feb-16 14:33N 39°51' W 075°16'0 0.0
2017-Feb-16 13:33N 39°51' W 075°16'0 0.0
2017-Feb-16 12:33N 39°51' W 075°16'0 0.0
2017-Feb-16 11:33N 39°51' W 075°16'0 0.0
2017-Feb-16 10:33N 39°51' W 075°16'0 0.0
2017-Feb-16 09:30N 39°51' W 075°16'0 0.0
2017-Feb-16 08:30N 39°51' W 075°16'0 0.0
2017-Feb-16 07:30N 39°51' W 075°16'0 0.5
2017-Feb-16 06:33N 39°51' W 075°16'1010.0
2017-Feb-16 05:33N 39°46' W 075°28'1111.1
2017-Feb-16 04:33N 39°37' W 075°34'1010.1
2017-Feb-16 03:33N 39°27' W 075°33'1010.0
2017-Feb-16 02:33N 39°19' W 075°24'9 9.2
2017-Feb-16 01:33N 39°12' W 075°17'10 9.6
2017-Feb-16 00:33N 39°03' W 075°10'  
2017-Feb-12 04:21N 26°15' W 079°29'  

Dump ship's entire track history